Time;durP1;ratioP1;P1;durP2;ratioP2;P2;SDS_P1;SDS_P2;PMS_P1;PMS_P2;Temp;Humidity;BMP_temperature;BMP_pressure;BME280_temperature;BME280_humidity;BME280_pressure;Samples;Min_cycle;Max_cycle;Signal;HPM_P1;HPM_P2
2023/07/21 00:00:18;;;;;;;8.57;5.55;;;;;;;;;;9989944;28;20507;-48
2023/07/21 00:05:15;;;;;;;8.60;5.90;;;;;;;;;;9992553;28;20113;-43
2023/07/21 00:10:08;;;;;;;6.20;5.03;;;;;;;;;;9986702;28;20480;-45
2023/07/21 00:15:01;;;;;;;5.35;4.85;;;;;;;;;;9984530;28;20046;-45
2023/07/21 00:19:53;;;;;;;6.45;5.50;;;;;;;;;;9978924;28;20138;-49
2023/07/21 00:24:45;;;;;;;6.25;5.65;;;;;;;;;;9981968;28;20536;-48
2023/07/21 00:29:37;;;;;;;7.35;6.53;;;;;;;;;;9984168;28;20104;-46
2023/07/21 00:34:29;;;;;;;6.30;5.18;;;;;;;;;;9984897;28;20050;-46
2023/07/21 00:39:21;;;;;;;6.25;4.93;;;;;;;;;;9983254;28;20046;-48
2023/07/21 00:44:13;;;;;;;7.43;5.35;;;;;;;;;;9982861;28;20460;-44
2023/07/21 00:49:05;;;;;;;5.88;5.10;;;;;;;;;;9973582;28;20054;-49
2023/07/21 00:53:57;;;;;;;6.38;4.85;;;;;;;;;;9981769;28;20385;-43
2023/07/21 00:58:49;;;;;;;6.15;5.47;;;;;;;;;;9984043;28;20394;-47
2023/07/21 01:03:41;;;;;;;5.93;5.28;;;;;;;;;;9964111;28;20042;-48
2023/07/21 01:08:33;;;;;;;7.13;5.22;;;;;;;;;;9980634;28;20096;-43
2023/07/21 01:13:26;;;;;;;7.80;5.30;;;;;;;;;;9982754;28;20046;-47
2023/07/21 01:18:19;;;;;;;5.88;4.78;;;;;;;;;;9981785;28;20641;-44
2023/07/21 01:23:19;;;;;;;5.47;4.97;;;;;;;;;;9960778;28;20070;-46
2023/07/21 01:28:14;;;;;;;5.45;4.95;;;;;;;;;;9989689;28;20415;-46
2023/07/21 01:33:08;;;;;;;5.38;4.88;;;;;;;;;;9983347;28;20054;-45
2023/07/21 01:38:00;;;;;;;5.43;4.90;;;;;;;;;;9966201;28;20070;-46
2023/07/21 01:42:52;;;;;;;5.93;5.22;;;;;;;;;;9983210;28;20480;-49
2023/07/21 01:47:45;;;;;;;6.30;5.13;;;;;;;;;;9980209;28;20462;-46
2023/07/21 01:52:38;;;;;;;7.53;4.47;;;;;;;;;;9984295;28;20046;-50
2023/07/21 01:57:33;;;;;;;6.70;4.75;;;;;;;;;;9989893;28;20054;-48
2023/07/21 02:02:26;;;;;;;8.80;6.72;;;;;;;;;;9973692;28;20046;-43
2023/07/21 02:07:20;;;;;;;7.13;5.05;;;;;;;;;;10014374;28;20074;-43
2023/07/21 02:12:13;;;;;;;5.25;4.78;;;;;;;;;;9990099;28;20082;-44
2023/07/21 02:17:11;;;;;;;7.03;4.97;;;;;;;;;;9991906;28;20052;-43
2023/07/21 02:22:03;;;;;;;6.53;4.50;;;;;;;;;;9991642;28;20546;-42
2023/07/21 02:26:55;;;;;;;4.38;3.97;;;;;;;;;;9987823;28;20080;-48
2023/07/21 02:31:49;;;;;;;7.63;6.50;;;;;;;;;;9989671;28;20043;-46
2023/07/21 02:36:41;;;;;;;9.20;5.75;;;;;;;;;;9990221;28;20042;-44
2023/07/21 02:41:33;;;;;;;5.70;5.10;;;;;;;;;;9988975;28;20034;-47
2023/07/21 02:46:25;;;;;;;7.25;5.50;;;;;;;;;;9988467;28;20058;-43
2023/07/21 02:51:17;;;;;;;9.27;6.40;;;;;;;;;;9974394;28;20124;-48
2023/07/21 02:56:11;;;;;;;7.47;5.18;;;;;;;;;;9986253;28;20499;-43
2023/07/21 03:01:23;;;;;;;4.68;4.28;;;;;;;;;;9972032;28;20059;-44
2023/07/21 03:06:15;;;;;;;6.82;5.70;;;;;;;;;;9950871;28;20140;-46
2023/07/21 03:11:07;;;;;;;6.40;4.97;;;;;;;;;;9969297;28;20050;-43
2023/07/21 03:16:06;;;;;;;6.32;5.65;;;;;;;;;;9986648;28;20046;-47
2023/07/21 03:21:00;;;;;;;5.90;4.88;;;;;;;;;;9970248;28;20050;-43
2023/07/21 03:25:53;;;;;;;8.05;5.22;;;;;;;;;;9985871;28;20054;-44
2023/07/21 03:30:46;;;;;;;6.32;5.45;;;;;;;;;;9980853;28;20047;-47
2023/07/21 03:35:47;;;;;;;15.38;5.60;;;;;;;;;;9987596;28;20057;-47
2023/07/21 03:40:39;;;;;;;5.28;4.72;;;;;;;;;;9969321;28;20073;-45
2023/07/21 03:45:31;;;;;;;4.80;4.25;;;;;;;;;;9984517;28;20061;-44
2023/07/21 03:50:23;;;;;;;5.78;5.15;;;;;;;;;;9986463;28;20042;-46
2023/07/21 03:55:18;;;;;;;5.95;5.35;;;;;;;;;;9985548;28;20042;-45
2023/07/21 04:00:11;;;;;;;7.30;5.38;;;;;;;;;;9984201;28;20043;-45
2023/07/21 04:05:06;;;;;;;7.03;5.07;;;;;;;;;;9968667;28;20042;-48
2023/07/21 04:09:58;;;;;;;5.95;4.90;;;;;;;;;;9983450;28;20053;-48
2023/07/21 04:14:51;;;;;;;7.32;5.90;;;;;;;;;;9966642;28;20127;-46
2023/07/21 04:19:42;;;;;;;5.07;4.50;;;;;;;;;;9983595;28;20211;-46
2023/07/21 04:24:35;;;;;;;7.72;5.65;;;;;;;;;;9968097;28;20141;-49
2023/07/21 04:29:27;;;;;;;5.57;4.78;;;;;;;;;;9983659;28;20097;-43
2023/07/21 04:34:29;;;;;;;7.43;5.07;;;;;;;;;;9983958;28;20097;-44
2023/07/21 04:39:22;;;;;;;5.45;4.95;;;;;;;;;;9983085;28;20097;-45
2023/07/21 04:44:15;;;;;;;7.78;5.28;;;;;;;;;;9968139;28;20054;-46
2023/07/21 04:49:09;;;;;;;6.30;5.70;;;;;;;;;;9983914;28;20065;-48
2023/07/21 04:54:08;;;;;;;6.32;5.72;;;;;;;;;;9983271;28;20701;-48
2023/07/21 04:59:00;;;;;;;5.97;4.90;;;;;;;;;;9984163;28;20491;-48
2023/07/21 05:03:52;;;;;;;6.25;5.10;;;;;;;;;;9974667;28;20133;-47
2023/07/21 05:08:44;;;;;;;6.13;5.55;;;;;;;;;;9992375;28;20048;-50
2023/07/21 05:13:37;;;;;;;8.32;5.90;;;;;;;;;;9989886;28;20047;-48
2023/07/21 05:18:58;;;;;;;5.68;5.18;;;;;;;;;;9981758;28;20120;-45
2023/07/21 05:24:10;;;;;;;5.88;4.75;;;;;;;;;;9970912;28;20451;-49
2023/07/21 05:29:03;;;;;;;8.23;4.70;;;;;;;;;;9987517;28;20104;-46
2023/07/21 05:34:07;;;;;;;5.65;4.97;;;;;;;;;;9970546;28;20051;-50
2023/07/21 05:39:00;;;;;;;6.63;5.35;;;;;;;;;;9987715;28;20042;-45
2023/07/21 05:43:54;;;;;;;5.80;5.10;;;;;;;;;;9988519;28;20409;-46
2023/07/21 05:48:46;;;;;;;5.20;4.80;;;;;;;;;;9985735;28;20050;-44
2023/07/21 05:53:39;;;;;;;8.25;6.10;;;;;;;;;;9986723;28;20042;-45
2023/07/21 05:58:34;;;;;;;5.13;4.57;;;;;;;;;;9970926;28;20043;-45
2023/07/21 06:03:26;;;;;;;8.27;7.05;;;;;;;;;;9989605;28;20053;-47
2023/07/21 06:08:21;;;;;;;7.57;5.25;;;;;;;;;;9988862;28;20050;-46
2023/07/21 06:13:24;;;;;;;5.00;4.47;;;;;;;;;;9971005;28;20392;-49
2023/07/21 06:18:26;;;;;;;5.10;4.63;;;;;;;;;;9989020;28;20476;-46
2023/07/21 06:23:19;;;;;;;6.03;5.07;;;;;;;;;;9987494;28;20081;-46
2023/07/21 06:28:12;;;;;;;5.60;5.03;;;;;;;;;;9987783;28;20050;-46
2023/07/21 06:33:05;;;;;;;6.75;4.95;;;;;;;;;;9972016;28;20050;-46
2023/07/21 06:38:00;;;;;;;5.32;4.82;;;;;;;;;;9969580;28;20050;-43
2023/07/21 06:43:15;;;;;;;5.75;4.35;;;;;;;;;;9990934;28;20074;-47
2023/07/21 06:48:30;;;;;;;6.65;4.90;;;;;;;;;;9980976;28;20054;-48
2023/07/21 06:53:35;;;;;;;13.25;5.80;;;;;;;;;;9973152;28;20050;-47
2023/07/21 06:58:28;;;;;;;6.47;5.88;;;;;;;;;;9970594;28;20129;-46
2023/07/21 07:03:20;;;;;;;5.20;4.70;;;;;;;;;;9968028;28;20757;-41
2023/07/21 07:08:12;;;;;;;6.00;5.38;;;;;;;;;;9972531;28;20137;-43
2023/07/21 07:13:05;;;;;;;6.93;6.22;;;;;;;;;;9972732;28;20054;-46
2023/07/21 07:17:58;;;;;;;5.13;4.63;;;;;;;;;;9990199;28;20053;-47
2023/07/21 07:22:50;;;;;;;4.93;4.53;;;;;;;;;;10002246;28;20392;-45
2023/07/21 07:27:43;;;;;;;6.40;4.93;;;;;;;;;;9989301;28;20061;-46
2023/07/21 07:32:35;;;;;;;7.65;4.82;;;;;;;;;;9989070;28;20058;-48
2023/07/21 07:37:27;;;;;;;5.88;5.28;;;;;;;;;;9988971;28;20046;-44
2023/07/21 07:42:19;;;;;;;4.88;4.38;;;;;;;;;;9985623;28;20042;-45
2023/07/21 07:47:11;;;;;;;5.40;4.90;;;;;;;;;;9985920;28;20046;-47
2023/07/21 07:52:03;;;;;;;8.30;4.78;;;;;;;;;;9983002;28;20448;-47
2023/07/21 07:56:55;;;;;;;6.18;5.53;;;;;;;;;;9967925;28;20049;-44
2023/07/21 08:01:47;;;;;;;7.30;4.90;;;;;;;;;;9983458;28;20086;-45
2023/07/21 08:06:40;;;;;;;6.60;5.13;;;;;;;;;;9984625;28;20058;-46
2023/07/21 08:11:32;;;;;;;5.55;5.05;;;;;;;;;;9981949;28;20056;-45
2023/07/21 08:16:25;;;;;;;6.55;5.03;;;;;;;;;;9983491;28;20081;-46
2023/07/21 08:21:18;;;;;;;4.75;4.35;;;;;;;;;;9983849;28;20069;-46
2023/07/21 08:26:10;;;;;;;6.18;4.95;;;;;;;;;;9983857;28;20472;-46
2023/07/21 08:31:02;;;;;;;5.07;4.57;;;;;;;;;;9983929;28;20050;-46
2023/07/21 08:35:54;;;;;;;5.00;4.55;;;;;;;;;;9984489;28;20074;-45
2023/07/21 08:40:50;;;;;;;5.78;5.18;;;;;;;;;;9978087;28;20766;-43
2023/07/21 08:45:44;;;;;;;4.65;4.25;;;;;;;;;;9949383;28;20050;-47
2023/07/21 08:50:36;;;;;;;4.88;4.38;;;;;;;;;;9947252;28;20492;-45
2023/07/21 08:55:28;;;;;;;5.90;5.00;;;;;;;;;;9970953;28;20452;-45
2023/07/21 09:00:20;;;;;;;5.72;4.43;;;;;;;;;;9978177;28;20069;-45
2023/07/21 09:05:18;;;;;;;5.72;4.75;;;;;;;;;;10005180;28;20384;-46
2023/07/21 09:10:10;;;;;;;5.25;4.70;;;;;;;;;;10009594;28;20423;-45
2023/07/21 09:15:09;;;;;;;6.10;5.03;;;;;;;;;;9954190;28;20055;-44
2023/07/21 09:20:07;;;;;;;9.65;5.47;;;;;;;;;;9985000;28;20086;-45
2023/07/21 09:24:59;;;;;;;5.25;4.72;;;;;;;;;;9985469;28;20419;-42
2023/07/21 09:30:03;;;;;;;6.47;5.60;;;;;;;;;;10007487;28;20479;-43
2023/07/21 09:35:03;;;;;;;5.90;4.85;;;;;;;;;;9988202;28;20553;-43
2023/07/21 09:40:06;;;;;;;5.45;4.65;;;;;;;;;;9971407;28;20053;-46
2023/07/21 09:44:58;;;;;;;7.30;5.50;;;;;;;;;;9957164;28;20046;-43
2023/07/21 09:49:54;;;;;;;5.53;5.03;;;;;;;;;;9971101;28;20932;-45
2023/07/21 09:55:00;;;;;;;5.40;4.90;;;;;;;;;;9980726;28;20138;-44
2023/07/21 09:59:56;;;;;;;8.35;6.18;;;;;;;;;;9985435;28;20042;-44
2023/07/21 10:04:48;;;;;;;11.75;7.07;;;;;;;;;;9989305;28;20447;-49
2023/07/21 10:09:41;;;;;;;14.52;8.00;;;;;;;;;;9993330;28;20492;-43
2023/07/21 10:14:34;;;;;;;9.85;6.60;;;;;;;;;;9987188;28;20046;-42
2023/07/21 10:19:28;;;;;;;10.25;7.60;;;;;;;;;;9998897;28;20202;-43
2023/07/21 10:24:24;;;;;;;12.40;7.45;;;;;;;;;;9975434;28;20046;-44
2023/07/21 10:29:17;;;;;;;8.00;7.13;;;;;;;;;;9987427;28;20047;-43
2023/07/21 10:34:14;;;;;;;9.38;7.38;;;;;;;;;;9985375;28;20046;-45
2023/07/21 10:39:16;;;;;;;10.48;7.03;;;;;;;;;;9991931;28;20047;-43
2023/07/21 10:44:12;;;;;;;13.27;8.25;;;;;;;;;;9964501;28;20054;-47
2023/07/21 10:49:03;;;;;;;16.02;7.93;;;;;;;;;;9996095;28;20051;-46
2023/07/21 10:53:55;;;;;;;12.50;8.25;;;;;;;;;;9978473;28;20038;-44
2023/07/21 10:58:48;;;;;;;13.60;8.68;;;;;;;;;;9989330;28;20054;-42
2023/07/21 11:03:41;;;;;;;11.55;7.43;;;;;;;;;;9985844;28;20486;-44
2023/07/21 11:08:33;;;;;;;8.82;7.07;;;;;;;;;;9975167;28;20070;-41
2023/07/21 11:13:27;;;;;;;12.18;7.57;;;;;;;;;;10005888;28;20510;-43
2023/07/21 11:18:19;;;;;;;11.02;7.30;;;;;;;;;;10002216;28;20753;-45
2023/07/21 11:23:12;;;;;;;8.80;6.28;;;;;;;;;;10001420;28;20046;-44
2023/07/21 11:28:06;;;;;;;11.10;7.88;;;;;;;;;;9967524;28;20054;-42
2023/07/21 11:33:10;;;;;;;9.13;6.70;;;;;;;;;;9978856;28;20066;-42
2023/07/21 11:38:09;;;;;;;10.20;7.32;;;;;;;;;;9984328;28;20038;-46
2023/07/21 11:43:06;;;;;;;13.40;6.80;;;;;;;;;;9984221;28;20133;-46
2023/07/21 11:47:57;;;;;;;8.98;6.18;;;;;;;;;;9984918;28;20674;-46
2023/07/21 11:52:50;;;;;;;7.93;6.20;;;;;;;;;;9983714;28;20356;-47
2023/07/21 11:57:41;;;;;;;11.38;7.07;;;;;;;;;;9996176;28;20054;-44
2023/07/21 12:02:34;;;;;;;11.07;6.82;;;;;;;;;;9977465;28;20069;-45
2023/07/21 12:07:26;;;;;;;7.00;5.95;;;;;;;;;;10003704;28;20076;-46
2023/07/21 12:12:18;;;;;;;10.57;5.68;;;;;;;;;;9986089;28;20534;-47
2023/07/21 12:17:14;;;;;;;11.23;6.43;;;;;;;;;;9987806;28;20104;-46
2023/07/21 12:22:10;;;;;;;8.15;5.70;;;;;;;;;;9996765;28;20038;-46
2023/07/21 12:27:04;;;;;;;6.60;5.63;;;;;;;;;;9973290;28;20047;-46
2023/07/21 12:31:56;;;;;;;9.07;6.28;;;;;;;;;;9997128;28;20483;-46
2023/07/21 12:36:49;;;;;;;11.07;6.65;;;;;;;;;;9981299;28;20452;-48
2023/07/21 12:41:41;;;;;;;8.32;6.05;;;;;;;;;;9986060;28;20531;-49
2023/07/21 12:46:32;;;;;;;8.18;5.85;;;;;;;;;;9976728;28;20093;-47
2023/07/21 12:51:24;;;;;;;14.85;6.80;;;;;;;;;;9981964;28;20046;-47
2023/07/21 12:56:16;;;;;;;13.73;8.38;;;;;;;;;;9983427;28;20157;-47
2023/07/21 13:01:08;;;;;;;13.07;7.63;;;;;;;;;;9964131;28;20350;-45
2023/07/21 13:06:00;;;;;;;15.30;7.60;;;;;;;;;;9983793;28;20081;-49
2023/07/21 13:10:52;;;;;;;9.68;6.82;;;;;;;;;;9982322;28;20416;-49
2023/07/21 13:15:44;;;;;;;10.70;8.23;;;;;;;;;;9982386;28;20441;-46
2023/07/21 13:20:36;;;;;;;9.88;7.03;;;;;;;;;;9985847;28;20038;-43
2023/07/21 13:25:28;;;;;;;9.77;6.78;;;;;;;;;;9991563;28;20050;-43
2023/07/21 13:30:20;;;;;;;10.55;7.30;;;;;;;;;;9991029;28;20438;-47
2023/07/21 13:35:12;;;;;;;14.23;8.38;;;;;;;;;;9990564;28;20125;-50
2023/07/21 13:40:05;;;;;;;10.73;7.55;;;;;;;;;;9989730;28;20063;-44
2023/07/21 13:44:57;;;;;;;12.30;7.90;;;;;;;;;;9990041;28;20648;-46
2023/07/21 13:49:49;;;;;;;12.88;8.13;;;;;;;;;;9988976;28;20526;-49
2023/07/21 13:54:41;;;;;;;9.25;6.55;;;;;;;;;;9990087;28;20357;-48
2023/07/21 13:59:33;;;;;;;11.05;7.00;;;;;;;;;;9990360;28;20354;-48
2023/07/21 14:04:25;;;;;;;11.35;7.55;;;;;;;;;;9981228;28;20062;-48
2023/07/21 14:09:17;;;;;;;12.13;7.25;;;;;;;;;;9978660;28;20105;-46
2023/07/21 14:14:09;;;;;;;9.70;6.75;;;;;;;;;;9976589;28;20137;-46
2023/07/21 14:19:03;;;;;;;8.70;7.10;;;;;;;;;;9978459;28;20518;-47
2023/07/21 14:23:56;;;;;;;9.48;6.70;;;;;;;;;;9991086;28;20141;-46
2023/07/21 14:28:50;;;;;;;10.30;7.68;;;;;;;;;;9991964;28;20057;-47
2023/07/21 14:33:42;;;;;;;9.90;6.40;;;;;;;;;;9991094;28;20057;-44
2023/07/21 14:38:35;;;;;;;13.68;7.10;;;;;;;;;;9990972;28;20046;-44
2023/07/21 14:43:27;;;;;;;15.95;6.72;;;;;;;;;;9992033;28;20392;-46
2023/07/21 14:48:20;;;;;;;15.00;7.55;;;;;;;;;;9990355;28;20499;-47
2023/07/21 14:53:12;;;;;;;8.55;6.40;;;;;;;;;;9988705;28;20133;-48
2023/07/21 14:58:04;;;;;;;10.18;7.13;;;;;;;;;;9986741;28;20042;-45
2023/07/21 15:02:56;;;;;;;9.75;7.28;;;;;;;;;;9990120;28;20049;-45
2023/07/21 15:07:48;;;;;;;8.75;6.82;;;;;;;;;;9990237;28;20360;-48
2023/07/21 15:12:40;;;;;;;10.20;6.30;;;;;;;;;;9989355;28;20062;-47
2023/07/21 15:17:32;;;;;;;8.88;6.45;;;;;;;;;;9989675;28;20050;-46
2023/07/21 15:22:24;;;;;;;9.45;6.22;;;;;;;;;;9989863;28;20451;-46
2023/07/21 15:27:16;;;;;;;8.48;5.93;;;;;;;;;;9989083;28;20372;-50
2023/07/21 15:32:08;;;;;;;10.50;6.57;;;;;;;;;;9988188;28;20078;-47
2023/07/21 15:37:00;;;;;;;7.20;5.70;;;;;;;;;;9989379;28;20039;-49
2023/07/21 15:41:52;;;;;;;9.45;5.80;;;;;;;;;;9988528;28;20053;-46
2023/07/21 15:46:44;;;;;;;12.43;6.40;;;;;;;;;;9987382;28;20049;-50
2023/07/21 15:51:36;;;;;;;9.65;6.90;;;;;;;;;;9988533;28;20050;-50
2023/07/21 15:56:28;;;;;;;9.75;5.65;;;;;;;;;;9988357;28;20050;-46
2023/07/21 16:01:21;;;;;;;9.00;7.38;;;;;;;;;;9987429;28;20046;-47
2023/07/21 16:06:13;;;;;;;8.65;5.65;;;;;;;;;;9988171;28;20141;-47
2023/07/21 16:11:05;;;;;;;10.95;8.10;;;;;;;;;;9987312;28;20050;-46
2023/07/21 16:16:02;;;;;;;8.45;5.97;;;;;;;;;;9988035;28;20053;-46
2023/07/21 16:20:54;;;;;;;9.37;6.23;;;;;;;;;;9987342;28;20193;-46
2023/07/21 16:25:45;;;;;;;7.43;6.07;;;;;;;;;;9979156;28;20081;-49
2023/07/21 16:30:41;;;;;;;6.38;5.50;;;;;;;;;;9981430;28;20380;-50
2023/07/21 16:35:33;;;;;;;9.50;6.15;;;;;;;;;;9986856;28;20050;-46
2023/07/21 16:40:25;;;;;;;7.80;5.70;;;;;;;;;;9984288;28;20043;-47
2023/07/21 16:45:17;;;;;;;9.52;6.13;;;;;;;;;;9982501;28;20057;-46
2023/07/21 16:50:10;;;;;;;14.90;7.38;;;;;;;;;;9983810;28;20050;-49
2023/07/21 16:55:04;;;;;;;26.25;8.38;;;;;;;;;;9960617;28;20046;-46
2023/07/21 16:59:59;;;;;;;21.05;10.00;;;;;;;;;;9959084;28;20054;-46
2023/07/21 17:04:53;;;;;;;17.85;9.10;;;;;;;;;;9961968;28;20122;-46
2023/07/21 17:09:45;;;;;;;14.85;9.07;;;;;;;;;;9944541;28;20050;-45
2023/07/21 17:14:36;;;;;;;16.25;8.32;;;;;;;;;;9967081;28;20042;-46
2023/07/21 17:19:28;;;;;;;17.95;8.27;;;;;;;;;;9960217;28;20051;-46
2023/07/21 17:24:21;;;;;;;15.68;8.50;;;;;;;;;;9951694;28;20047;-49
2023/07/21 17:29:13;;;;;;;14.50;8.60;;;;;;;;;;9951537;28;20090;-47
2023/07/21 17:34:05;;;;;;;11.13;7.72;;;;;;;;;;9963166;28;20417;-45
2023/07/21 17:38:57;;;;;;;20.02;7.18;;;;;;;;;;9947511;28;20461;-47
2023/07/21 17:43:49;;;;;;;14.65;7.82;;;;;;;;;;9951263;28;20075;-46
2023/07/21 17:48:41;;;;;;;13.82;7.28;;;;;;;;;;9954048;28;20142;-45
2023/07/21 17:53:33;;;;;;;9.23;7.10;;;;;;;;;;9949273;28;20039;-44
2023/07/21 17:58:25;;;;;;;10.75;7.35;;;;;;;;;;9953880;28;20142;-44
2023/07/21 18:03:17;;;;;;;12.13;6.75;;;;;;;;;;9963688;28;20042;-46
2023/07/21 18:08:09;;;;;;;15.15;7.20;;;;;;;;;;9992831;28;20566;-46
2023/07/21 18:13:01;;;;;;;13.57;7.35;;;;;;;;;;9984581;28;20054;-43
2023/07/21 18:17:53;;;;;;;8.45;6.32;;;;;;;;;;9965799;28;20540;-46
2023/07/21 18:22:46;;;;;;;11.05;7.13;;;;;;;;;;9976522;28;20390;-46
2023/07/21 18:27:38;;;;;;;13.30;7.07;;;;;;;;;;9980368;28;20105;-49
2023/07/21 18:32:30;;;;;;;8.00;6.43;;;;;;;;;;9954670;28;20973;-48
2023/07/21 18:37:22;;;;;;;12.63;7.65;;;;;;;;;;9969548;28;20038;-46
2023/07/21 18:42:14;;;;;;;10.65;7.22;;;;;;;;;;9957965;28;20047;-46
2023/07/21 18:47:06;;;;;;;8.38;5.88;;;;;;;;;;9968499;28;20469;-46
2023/07/21 18:51:58;;;;;;;7.93;5.63;;;;;;;;;;9982392;28;20046;-49
2023/07/21 18:56:50;;;;;;;8.70;6.00;;;;;;;;;;9981353;28;20123;-47
2023/07/21 19:01:42;;;;;;;6.65;5.63;;;;;;;;;;9955089;28;20524;-46
2023/07/21 19:06:37;;;;;;;10.90;7.22;;;;;;;;;;9985882;28;20046;-44
2023/07/21 19:11:29;;;;;;;8.35;6.03;;;;;;;;;;9960382;28;20057;-47
2023/07/21 19:16:22;;;;;;;10.07;7.03;;;;;;;;;;9954060;28;20065;-49
2023/07/21 19:21:14;;;;;;;8.50;6.03;;;;;;;;;;9962005;28;20078;-46
2023/07/21 19:26:07;;;;;;;11.90;6.80;;;;;;;;;;9961781;28;20044;-46
2023/07/21 19:31:00;;;;;;;9.38;6.00;;;;;;;;;;9963103;28;20054;-46
2023/07/21 19:35:53;;;;;;;9.15;6.57;;;;;;;;;;9957162;28;20571;-47
2023/07/21 19:40:45;;;;;;;6.90;5.85;;;;;;;;;;9953939;28;20376;-45
2023/07/21 19:45:38;;;;;;;7.30;5.63;;;;;;;;;;9969361;28;20072;-46
2023/07/21 19:50:33;;;;;;;7.50;5.32;;;;;;;;;;9961006;28;20047;-46
2023/07/21 19:55:25;;;;;;;9.80;6.20;;;;;;;;;;9954183;28;20397;-47
2023/07/21 20:00:17;;;;;;;7.30;5.88;;;;;;;;;;9951655;28;20389;-47
2023/07/21 20:05:09;;;;;;;7.95;6.05;;;;;;;;;;9961108;28;20050;-47
2023/07/21 20:10:01;;;;;;;7.88;6.05;;;;;;;;;;9959284;28;20101;-47
2023/07/21 20:14:54;;;;;;;7.80;5.50;;;;;;;;;;9975315;28;20507;-45
2023/07/21 20:19:48;;;;;;;9.15;6.20;;;;;;;;;;9951714;28;20354;-46
2023/07/21 20:24:40;;;;;;;8.00;5.20;;;;;;;;;;9950752;28;20042;-46
2023/07/21 20:29:32;;;;;;;6.45;5.03;;;;;;;;;;9951860;28;20054;-45
2023/07/21 20:34:24;;;;;;;8.38;6.15;;;;;;;;;;9971921;28;20081;-46
2023/07/21 20:39:16;;;;;;;7.22;5.40;;;;;;;;;;9956289;28;20046;-46
2023/07/21 20:44:07;;;;;;;6.95;5.90;;;;;;;;;;9947387;28;20126;-49
2023/07/21 20:48:59;;;;;;;8.00;5.72;;;;;;;;;;9953269;28;20061;-49
2023/07/21 20:53:51;;;;;;;7.65;5.38;;;;;;;;;;9964738;28;20046;-45
2023/07/21 20:58:43;;;;;;;6.03;4.78;;;;;;;;;;9942778;28;20105;-48
2023/07/21 21:03:35;;;;;;;8.73;5.22;;;;;;;;;;9946517;28;20097;-45
2023/07/21 21:08:27;;;;;;;6.00;5.40;;;;;;;;;;9951280;28;20097;-46
2023/07/21 21:13:21;;;;;;;7.85;5.05;;;;;;;;;;9970201;28;20142;-46
2023/07/21 21:18:13;;;;;;;7.63;5.85;;;;;;;;;;9955320;28;20133;-44
2023/07/21 21:23:05;;;;;;;6.40;5.25;;;;;;;;;;9956401;28;20099;-46
2023/07/21 21:27:57;;;;;;;6.55;5.38;;;;;;;;;;9958520;28;20054;-46
2023/07/21 21:32:49;;;;;;;8.63;5.47;;;;;;;;;;9947289;28;20098;-45
2023/07/21 21:37:41;;;;;;;7.45;5.28;;;;;;;;;;9972877;28;20100;-41
2023/07/21 21:42:33;;;;;;;12.00;5.10;;;;;;;;;;9967004;28;20038;-44
2023/07/21 21:47:25;;;;;;;5.03;4.53;;;;;;;;;;9978755;28;20042;-44
2023/07/21 21:52:17;;;;;;;6.10;5.07;;;;;;;;;;9980200;28;20042;-43
2023/07/21 21:57:09;;;;;;;6.45;4.78;;;;;;;;;;9981115;28;20050;-41
2023/07/21 22:02:01;;;;;;;6.50;4.90;;;;;;;;;;9986134;28;20089;-45
2023/07/21 22:06:54;;;;;;;7.07;3.70;;;;;;;;;;9960691;28;20055;-47
2023/07/21 22:11:45;;;;;;;5.40;4.30;;;;;;;;;;9968981;28;20384;-45
2023/07/21 22:16:38;;;;;;;6.55;4.07;;;;;;;;;;9983506;28;20054;-44
2023/07/21 22:21:30;;;;;;;7.95;4.80;;;;;;;;;;9973496;28;20042;-44
2023/07/21 22:26:22;;;;;;;9.45;4.07;;;;;;;;;;9977154;28;20133;-45
2023/07/21 22:31:16;;;;;;;4.68;4.25;;;;;;;;;;9970144;28;20043;-47
2023/07/21 22:36:09;;;;;;;5.30;3.88;;;;;;;;;;9967977;28;20104;-47
2023/07/21 22:41:05;;;;;;;5.10;4.32;;;;;;;;;;9949005;28;20491;-46
2023/07/21 22:46:00;;;;;;;5.03;4.22;;;;;;;;;;9960418;28;20047;-48
2023/07/21 22:50:52;;;;;;;6.68;4.05;;;;;;;;;;9975565;28;20060;-47
2023/07/21 22:55:45;;;;;;;5.68;4.47;;;;;;;;;;9962307;28;20519;-49
2023/07/21 23:00:37;;;;;;;7.70;4.13;;;;;;;;;;9957389;28;20046;-44
2023/07/21 23:05:29;;;;;;;4.15;3.75;;;;;;;;;;9993019;28;20421;-47
2023/07/21 23:10:21;;;;;;;5.20;3.97;;;;;;;;;;9965529;28;20064;-46
2023/07/21 23:15:13;;;;;;;5.55;4.25;;;;;;;;;;9973924;28;20066;-45
2023/07/21 23:20:07;;;;;;;4.25;3.42;;;;;;;;;;9985555;28;20043;-47
2023/07/21 23:24:59;;;;;;;4.07;3.60;;;;;;;;;;9986410;28;20039;-48
2023/07/21 23:29:51;;;;;;;5.65;4.13;;;;;;;;;;9987864;28;20110;-45
2023/07/21 23:34:43;;;;;;;5.30;3.80;;;;;;;;;;9968340;28;20047;-44
2023/07/21 23:39:34;;;;;;;7.07;4.32;;;;;;;;;;9972909;28;20042;-45
2023/07/21 23:44:27;;;;;;;5.63;4.00;;;;;;;;;;9981813;28;20070;-47
2023/07/21 23:49:19;;;;;;;6.75;3.85;;;;;;;;;;9981684;28;20054;-41
2023/07/21 23:54:10;;;;;;;6.10;4.30;;;;;;;;;;9970423;28;20132;-47
2023/07/21 23:59:02;;;;;;;5.47;4.18;;;;;;;;;;9988313;28;20141;-46
